createdAt,value
2018-08-03T00:00:08.491Z,22.98
2018-08-03T00:01:18.077Z,23.01
2018-08-03T00:02:28.192Z,23.05
2018-08-03T00:03:38.044Z,23.01
2018-08-03T00:04:47.892Z,23.09
2018-08-03T00:05:57.568Z,23.04
2018-08-03T00:07:07.140Z,23.04
2018-08-03T00:08:17.249Z,23
2018-08-03T00:09:26.829Z,23.02
2018-08-03T00:10:36.137Z,22.94
2018-08-03T00:11:45.711Z,23.02
2018-08-03T00:12:55.018Z,22.98
2018-08-03T00:14:04.595Z,22.88
2018-08-03T00:15:14.717Z,22.91
2018-08-03T00:16:24.826Z,22.88
2018-08-03T00:17:34.669Z,23
2018-08-03T00:18:44.787Z,22.8
2018-08-03T00:19:54.378Z,22.86
2018-08-03T00:21:04.504Z,22.9
2018-08-03T00:22:14.080Z,22.79
2018-08-03T00:23:23.653Z,22.79
2018-08-03T00:24:33.506Z,22.76
2018-08-03T00:25:43.623Z,22.75
2018-08-03T00:26:53.196Z,22.79
2018-08-03T00:28:02.774Z,22.75
2018-08-03T00:29:12.685Z,22.73
2018-08-03T00:30:22.270Z,22.72
2018-08-03T00:31:31.845Z,22.8
2018-08-03T00:32:41.422Z,22.68
2018-08-03T00:33:51.276Z,22.65
2018-08-03T00:35:00.852Z,22.64
2018-08-03T00:36:10.163Z,22.58
2018-08-03T00:37:20.286Z,22.57
2018-08-03T00:38:29.857Z,22.61
2018-08-03T00:39:38.949Z,22.57
2018-08-03T00:40:48.802Z,22.62
2018-08-03T00:41:58.642Z,22.58
2018-08-03T00:43:08.216Z,22.46
2018-08-03T00:44:18.071Z,22.47
2018-08-03T00:45:27.643Z,22.51
2018-08-03T00:46:37.488Z,22.47
2018-08-03T00:47:47.066Z,22.47
2018-08-03T00:48:56.908Z,22.49
2018-08-03T00:50:06.484Z,22.46
2018-08-03T00:51:16.339Z,22.49
2018-08-03T00:52:25.914Z,22.46
2018-08-03T00:53:36.036Z,22.46
2018-08-03T00:54:45.079Z,22.47
2018-08-03T00:55:54.381Z,22.43
2018-08-03T00:57:03.952Z,22.45
2018-08-03T00:58:13.257Z,22.43
2018-08-03T00:59:22.835Z,22.39
2018-08-03T01:00:32.412Z,22.37
2018-08-03T01:01:42.258Z,22.35
2018-08-03T01:02:52.104Z,22.35
2018-08-03T01:04:02.217Z,22.31
2018-08-03T01:05:11.794Z,22.28
2018-08-03T01:06:21.373Z,22.3
2018-08-03T01:07:30.679Z,22.2
2018-08-03T01:08:40.523Z,22.21
2018-08-03T01:09:49.828Z,22.14
2018-08-03T01:10:59.138Z,22.27
2018-08-03T01:12:09.317Z,22.18
2018-08-03T01:13:19.175Z,22.25
2018-08-03T01:14:28.479Z,22.22
2018-08-03T01:15:37.780Z,22.21
2018-08-03T01:16:47.087Z,22.25
2018-08-03T01:17:56.664Z,22.21
2018-08-03T01:19:06.244Z,22.15
2018-08-03T01:20:16.357Z,22.21
2018-08-03T01:21:25.931Z,22.1
2018-08-03T01:22:35.504Z,22.07
2018-08-03T01:23:45.621Z,22.12
2018-08-03T01:24:55.463Z,22.09
2018-08-03T01:26:05.305Z,22.09
2018-08-03T01:27:15.417Z,21.99
2018-08-03T01:28:24.995Z,22.09
2018-08-03T01:29:34.304Z,22.06
2018-08-03T01:30:43.609Z,22.09
2018-08-03T01:31:53.453Z,21.98
2018-08-03T01:33:03.028Z,22.05
2018-08-03T01:34:12.602Z,22
2018-08-03T01:35:22.448Z,22.02
2018-08-03T01:36:32.565Z,21.98
2018-08-03T01:37:41.894Z,21.96
2018-08-03T01:38:51.566Z,21.96
2018-08-03T01:40:00.869Z,21.96
2018-08-03T01:41:10.716Z,21.91
2018-08-03T01:42:20.575Z,21.86
2018-08-03T01:43:30.421Z,21.82
2018-08-03T01:44:39.459Z,21.88
2018-08-03T01:45:49.034Z,21.72
2018-08-03T01:46:58.876Z,21.92
2018-08-03T01:48:08.451Z,21.79
2018-08-03T01:49:18.300Z,21.88
2018-08-03T01:50:27.874Z,21.79
2018-08-03T01:51:37.449Z,21.83
2018-08-03T01:52:47.561Z,21.8
2018-08-03T01:53:57.411Z,21.8
2018-08-03T01:55:07.267Z,21.74
2018-08-03T01:56:17.376Z,21.77
2018-08-03T01:57:27.236Z,21.65
2018-08-03T01:58:37.085Z,21.62
2018-08-03T01:59:47.202Z,21.67
2018-08-03T02:00:56.784Z,21.68
2018-08-03T02:02:06.653Z,21.65
2018-08-03T02:03:16.320Z,21.69
2018-08-03T02:04:26.256Z,21.64
2018-08-03T02:05:35.291Z,21.69
2018-08-03T02:06:44.868Z,21.72
2018-08-03T02:07:54.723Z,21.61
2018-08-03T02:09:04.028Z,21.65
2018-08-03T02:10:13.345Z,21.62
2018-08-03T02:11:23.189Z,21.62
2018-08-03T02:12:33.036Z,21.58
2018-08-03T02:13:42.883Z,21.59
2018-08-03T02:14:52.733Z,21.53
2018-08-03T02:16:02.043Z,21.52
2018-08-03T02:17:11.347Z,21.61
2018-08-03T02:18:20.665Z,21.59
2018-08-03T02:19:30.238Z,21.62
2018-08-03T02:20:39.809Z,21.61
2018-08-03T02:21:49.120Z,21.58
2018-08-03T02:22:58.964Z,21.62
2018-08-03T02:24:08.813Z,21.62
2018-08-03T02:25:18.716Z,21.53
2018-08-03T02:26:28.056Z,21.54
2018-08-03T02:27:37.907Z,21.52
2018-08-03T02:28:47.482Z,21.5
2018-08-03T02:29:57.078Z,21.46
2018-08-03T02:31:06.380Z,21.49
2018-08-03T02:32:15.982Z,21.4
2018-08-03T02:33:26.112Z,21.43
2018-08-03T02:34:35.964Z,21.44
2018-08-03T02:35:44.995Z,21.38
2018-08-03T02:36:54.029Z,21.4
2018-08-03T02:38:03.607Z,21.32
2018-08-03T02:39:13.180Z,21.37
2018-08-03T02:40:23.028Z,21.31
2018-08-03T02:41:32.880Z,21.29
2018-08-03T02:42:42.745Z,21.28
2018-08-03T02:43:52.595Z,21.35
2018-08-03T02:45:02.718Z,21.27
2018-08-03T02:46:12.029Z,21.31
2018-08-03T02:47:22.153Z,21.27
2018-08-03T02:48:32.009Z,21.27
2018-08-03T02:49:42.140Z,21.24
2018-08-03T02:50:52.255Z,21.21
2018-08-03T02:52:01.829Z,21.29
2018-08-03T02:53:11.408Z,21.22
2018-08-03T02:54:21.521Z,21.27
2018-08-03T02:55:30.823Z,21.28
2018-08-03T02:56:40.128Z,21.27
2018-08-03T02:57:49.699Z,21.24
2018-08-03T02:58:59.541Z,21.21
2018-08-03T03:00:09.124Z,21.25
2018-08-03T03:01:18.695Z,21.27
2018-08-03T03:02:28.803Z,21.19
2018-08-03T03:03:38.670Z,21.14
2018-08-03T03:04:48.242Z,21.14
2018-08-03T03:05:58.079Z,21.16
2018-08-03T03:07:08.193Z,21.16
2018-08-03T03:08:18.041Z,21.13
2018-08-03T03:09:27.891Z,21.13
2018-08-03T03:10:37.741Z,21.14
2018-08-03T03:11:47.045Z,21.12
2018-08-03T03:12:57.158Z,21.14
2018-08-03T03:14:06.998Z,21.09
2018-08-03T03:15:16.838Z,21.03
2018-08-03T03:16:26.148Z,21.06
2018-08-03T03:17:35.995Z,21.06
2018-08-03T03:18:46.104Z,21.04
2018-08-03T03:19:55.410Z,21.1
2018-08-03T03:21:04.438Z,21.03
2018-08-03T03:22:14.553Z,21.06
2018-08-03T03:23:24.674Z,21.06
2018-08-03T03:24:34.524Z,21.07
2018-08-03T03:25:44.091Z,21.06
2018-08-03T03:26:54.204Z,21.03
2018-08-03T03:28:04.045Z,21.06
2018-08-03T03:29:14.217Z,20.97
2018-08-03T03:30:24.079Z,20.99
2018-08-03T03:31:33.945Z,20.99
2018-08-03T03:32:43.998Z,20.94
2018-08-03T03:33:53.804Z,20.95
2018-08-03T03:35:03.110Z,20.91
2018-08-03T03:36:13.223Z,20.89
2018-08-03T03:37:22.528Z,20.89
2018-08-03T03:38:32.102Z,20.82
2018-08-03T03:39:41.944Z,20.85
2018-08-03T03:40:51.782Z,20.85
2018-08-03T03:42:01.357Z,20.91
2018-08-03T03:43:11.201Z,20.85
2018-08-03T03:44:21.074Z,20.87
2018-08-03T03:45:31.077Z,20.87
2018-08-03T03:46:41.189Z,20.94
2018-08-03T03:47:51.040Z,20.8
2018-08-03T03:49:00.618Z,20.88
2018-08-03T03:50:09.930Z,20.79
2018-08-03T03:51:19.247Z,20.79
2018-08-03T03:52:28.560Z,20.84
2018-08-03T03:53:38.129Z,20.87
2018-08-03T03:54:46.897Z,20.74
2018-08-03T03:55:56.466Z,20.79
2018-08-03T03:57:06.304Z,20.8
2018-08-03T03:58:16.149Z,20.77
2018-08-03T03:59:25.613Z,20.7
2018-08-03T04:00:35.194Z,20.79
2018-08-03T04:01:44.501Z,20.79
2018-08-03T04:02:54.080Z,20.79
2018-08-03T04:04:03.706Z,20.77
2018-08-03T04:05:13.560Z,20.76
2018-08-03T04:06:22.873Z,20.8
2018-08-03T04:07:32.722Z,20.8
2018-08-03T04:08:42.849Z,20.73
2018-08-03T04:09:52.422Z,20.82
2018-08-03T04:11:02.772Z,20.87
2018-08-03T04:12:12.573Z,20.82
2018-08-03T04:13:22.878Z,20.84
2018-08-03T04:14:32.730Z,20.77
2018-08-03T04:15:42.641Z,20.8
2018-08-03T04:16:52.751Z,20.82
2018-08-03T04:18:02.062Z,20.82
2018-08-03T04:19:11.903Z,20.91
2018-08-03T04:20:22.027Z,20.91
2018-08-03T04:21:31.601Z,20.85
2018-08-03T04:22:41.442Z,20.89
2018-08-03T04:23:50.750Z,20.98
2018-08-03T04:25:00.333Z,20.91
2018-08-03T04:26:09.641Z,20.95
2018-08-03T04:27:19.757Z,20.92
2018-08-03T04:28:29.603Z,20.94
2018-08-03T04:29:39.196Z,20.95
2018-08-03T04:30:49.321Z,21.01
2018-08-03T04:31:58.888Z,20.92
2018-08-03T04:33:08.733Z,21.03
2018-08-03T04:34:18.323Z,21.01
2018-08-03T04:35:27.626Z,20.97
2018-08-03T04:36:37.736Z,21.04
2018-08-03T04:37:47.306Z,21.04
2018-08-03T04:38:56.919Z,21.06
2018-08-03T04:40:06.901Z,20.99
2018-08-03T04:41:16.742Z,20.98
2018-08-03T04:42:27.156Z,21.09
2018-08-03T04:43:37.424Z,21.04
2018-08-03T04:44:47.282Z,21.06
2018-08-03T04:45:56.855Z,21.12
2018-08-03T04:47:06.719Z,21.12
2018-08-03T04:48:16.832Z,21.14
2018-08-03T04:49:26.414Z,21.17
2018-08-03T04:50:36.267Z,21.13
2018-08-03T04:51:46.388Z,21.16
2018-08-03T04:52:55.691Z,21.12
2018-08-03T04:54:04.732Z,21.19
2018-08-03T04:55:13.768Z,21.19
2018-08-03T04:56:23.617Z,21.19
2018-08-03T04:57:33.468Z,21.24
2018-08-03T04:58:42.767Z,21.27
2018-08-03T04:59:52.351Z,21.32
2018-08-03T05:01:02.194Z,21.32
2018-08-03T05:02:12.326Z,21.38
2018-08-03T05:03:21.371Z,21.31
2018-08-03T05:04:31.226Z,21.38
2018-08-03T05:05:40.526Z,21.4
2018-08-03T05:06:49.825Z,21.42
2018-08-03T05:07:59.751Z,21.42
2018-08-03T05:09:09.333Z,21.44
2018-08-03T05:10:19.452Z,21.53
2018-08-03T05:11:29.294Z,21.44
2018-08-03T05:12:38.602Z,21.49
2018-08-03T05:13:48.717Z,21.53
2018-08-03T05:14:58.296Z,21.49
2018-08-03T05:16:08.409Z,21.64
2018-08-03T05:17:17.991Z,21.58
2018-08-03T05:18:27.836Z,21.64
2018-08-03T05:19:37.466Z,21.65
2018-08-03T05:20:47.039Z,21.59
2018-08-03T05:21:56.617Z,21.71
2018-08-03T05:23:06.737Z,21.68
2018-08-03T05:24:16.426Z,21.64
2018-08-03T05:25:26.808Z,21.72
2018-08-03T05:26:36.933Z,21.65
2018-08-03T05:27:47.052Z,21.62
2018-08-03T05:28:56.648Z,21.64
2018-08-03T05:30:06.237Z,21.65
2018-08-03T05:31:16.131Z,21.72
2018-08-03T05:32:25.710Z,21.75
2018-08-03T05:33:35.282Z,21.68
2018-08-03T05:34:44.594Z,21.69
2018-08-03T05:35:54.574Z,21.8
2018-08-03T05:37:04.692Z,21.79
2018-08-03T05:38:14.539Z,21.8
2018-08-03T05:39:24.383Z,21.74
2018-08-03T05:40:33.963Z,21.88
2018-08-03T05:41:43.289Z,21.8
2018-08-03T05:42:52.916Z,21.82
2018-08-03T05:44:02.502Z,21.84
2018-08-03T05:45:12.070Z,21.79
2018-08-03T05:46:21.915Z,21.74
2018-08-03T05:47:31.761Z,21.86
2018-08-03T05:48:41.341Z,21.91
2018-08-03T05:49:50.917Z,21.98
2018-08-03T05:51:01.044Z,21.94
2018-08-03T05:52:10.624Z,22
2018-08-03T05:53:20.525Z,22
2018-08-03T05:54:30.102Z,22.03
2018-08-03T05:55:40.220Z,22.09
2018-08-03T05:56:50.071Z,22.14
2018-08-03T05:57:59.485Z,22.09
2018-08-03T05:59:09.461Z,22.1
2018-08-03T06:00:19.033Z,22.15
2018-08-03T06:01:28.611Z,22.1
2018-08-03T06:02:38.454Z,22.18
2018-08-03T06:03:48.297Z,22.24
2018-08-03T06:04:58.164Z,22.22
2018-08-03T06:06:07.740Z,22.27
2018-08-03T06:07:17.050Z,22.33
2018-08-03T06:08:26.896Z,22.33
2018-08-03T06:09:36.576Z,22.27
2018-08-03T06:10:46.658Z,22.46
2018-08-03T06:11:55.965Z,22.47
2018-08-03T06:13:05.185Z,22.47
2018-08-03T06:14:15.300Z,22.62
2018-08-03T06:15:24.874Z,22.64
2018-08-03T06:16:34.988Z,22.62
2018-08-03T06:17:45.101Z,22.54
2018-08-03T06:18:55.217Z,22.55
2018-08-03T06:20:04.798Z,22.7
2018-08-03T06:21:13.832Z,22.64
2018-08-03T06:22:23.409Z,22.68
2018-08-03T06:23:33.294Z,22.75
2018-08-03T06:24:42.877Z,22.73
2018-08-03T06:25:52.737Z,22.79
2018-08-03T06:27:02.588Z,22.79
2018-08-03T06:28:11.626Z,22.8
2018-08-03T06:29:20.930Z,22.82
2018-08-03T06:30:30.828Z,22.82
2018-08-03T06:31:40.402Z,22.88
2018-08-03T06:32:49.704Z,22.88
2018-08-03T06:33:59.569Z,22.98
2018-08-03T06:35:09.181Z,23.02
2018-08-03T06:36:18.486Z,23.07
2018-08-03T06:37:28.071Z,23.01
2018-08-03T06:38:37.924Z,23.09
2018-08-03T06:39:46.968Z,23.02
2018-08-03T06:40:57.085Z,23.07
2018-08-03T06:42:06.667Z,23.1
2018-08-03T06:43:16.787Z,23.15
2018-08-03T06:44:26.366Z,23.25
2018-08-03T06:45:36.218Z,23.2
2018-08-03T06:46:45.521Z,23.35
2018-08-03T06:47:54.834Z,23.33
2018-08-03T06:49:04.683Z,23.57
2018-08-03T06:50:14.807Z,23.5
2018-08-03T06:51:24.650Z,23.5
2018-08-03T06:52:34.220Z,23.51
2018-08-03T06:53:44.433Z,23.6
2018-08-03T06:54:54.714Z,23.54
2018-08-03T06:56:04.300Z,23.57
2018-08-03T06:57:13.899Z,23.6
2018-08-03T06:58:23.745Z,23.6
2018-08-03T06:59:33.344Z,23.63
2018-08-03T07:00:42.947Z,23.65
2018-08-03T07:01:52.529Z,23.65
2018-08-03T07:03:02.079Z,23.73
2018-08-03T07:04:11.653Z,23.73
2018-08-03T07:05:20.962Z,23.78
2018-08-03T07:06:30.543Z,23.76
2018-08-03T07:07:40.662Z,23.93
2018-08-03T07:08:50.236Z,23.93
2018-08-03T07:10:00.082Z,23.88
2018-08-03T07:11:10.204Z,23.91
2018-08-03T07:12:20.332Z,23.97
2018-08-03T07:13:29.932Z,24.05
2018-08-03T07:14:39.809Z,24.15
2018-08-03T07:15:49.866Z,24.18
2018-08-03T07:16:59.169Z,24.18
2018-08-03T07:18:09.015Z,24.16
2018-08-03T07:19:18.604Z,24.35
2018-08-03T07:20:29.507Z,24.31
2018-08-03T07:21:38.439Z,24.39
2018-08-03T07:22:47.742Z,24.39
2018-08-03T07:23:57.591Z,24.34
2018-08-03T07:25:07.454Z,24.4
2018-08-03T07:26:16.763Z,24.5
2018-08-03T07:27:26.610Z,24.53
2018-08-03T07:28:35.920Z,24.55
2018-08-03T07:29:45.504Z,24.64
2018-08-03T07:30:55.087Z,24.69
2018-08-03T07:32:04.934Z,24.71
2018-08-03T07:33:15.054Z,24.81
2018-08-03T07:34:25.181Z,24.78
2018-08-03T07:35:35.029Z,24.78
2018-08-03T07:36:44.874Z,24.87
2018-08-03T07:37:54.478Z,24.87
2018-08-03T07:39:04.323Z,24.88
2018-08-03T07:40:13.708Z,24.88
2018-08-03T07:41:23.835Z,24.91
2018-08-03T07:42:33.144Z,24.87
2018-08-03T07:43:42.450Z,24.88
2018-08-03T07:44:52.615Z,24.96
2018-08-03T07:46:02.297Z,24.99
2018-08-03T07:47:12.418Z,24.98
2018-08-03T07:48:21.989Z,25.02
2018-08-03T07:49:32.105Z,25.1
2018-08-03T07:50:41.140Z,25.2
2018-08-03T07:51:50.717Z,25.13
2018-08-03T07:53:00.305Z,25.21
2018-08-03T07:54:10.152Z,25.24
2018-08-03T07:55:19.730Z,25.32
2018-08-03T07:56:29.035Z,25.36
2018-08-03T07:57:38.609Z,25.35
2018-08-03T07:58:48.188Z,25.33
2018-08-03T07:59:57.494Z,25.51
2018-08-03T08:01:07.073Z,25.6
2018-08-03T08:02:16.930Z,25.51
2018-08-03T08:03:26.788Z,25.61
2018-08-03T08:04:36.636Z,25.64
2018-08-03T08:05:46.488Z,25.62
2018-08-03T08:06:55.808Z,25.62
2018-08-03T08:08:05.791Z,25.52
2018-08-03T08:09:15.638Z,25.67
2018-08-03T08:10:25.488Z,25.76
2018-08-03T08:11:35.071Z,25.65
2018-08-03T08:12:44.646Z,25.7
2018-08-03T08:13:54.535Z,25.76
2018-08-03T08:15:04.717Z,25.67
2018-08-03T08:16:14.401Z,25.65
2018-08-03T08:17:24.516Z,25.64
2018-08-03T08:18:34.095Z,25.8
2018-08-03T08:19:43.940Z,25.8
2018-08-03T08:20:53.794Z,25.76
2018-08-03T08:22:03.378Z,25.88
2018-08-03T08:23:12.688Z,26.09
2018-08-03T08:24:22.539Z,26.2
2018-08-03T08:25:31.850Z,26.29
2018-08-03T08:26:41.972Z,26.37
2018-08-03T08:27:52.094Z,26.5
2018-08-03T08:29:01.678Z,26.5
2018-08-03T08:30:10.988Z,26.5
2018-08-03T08:31:21.164Z,26.39
2018-08-03T08:32:31.032Z,26.48
2018-08-03T08:33:41.158Z,26.48
2018-08-03T08:34:51.281Z,26.33
2018-08-03T08:36:00.855Z,26.54
2018-08-03T08:37:10.703Z,26.62
2018-08-03T08:38:20.287Z,26.81
2018-08-03T08:39:29.597Z,26.67
2018-08-03T08:40:39.437Z,26.76
2018-08-03T08:41:48.750Z,26.76
2018-08-03T08:42:58.594Z,26.87
2018-08-03T08:44:08.174Z,26.91
2018-08-03T08:45:16.940Z,27.04
2018-08-03T08:46:26.519Z,27.12
2018-08-03T08:47:36.112Z,27.21
2018-08-03T08:48:45.956Z,27.14
2018-08-03T08:49:55.529Z,27.21
2018-08-03T08:51:04.299Z,27.13
2018-08-03T08:52:14.418Z,27
2018-08-03T08:53:24.781Z,27.07
2018-08-03T08:54:34.720Z,27.04
2018-08-03T08:55:44.332Z,27.1
2018-08-03T08:56:53.928Z,27.19
2018-08-03T08:58:03.506Z,27.29
2018-08-03T08:59:13.083Z,27.43
2018-08-03T09:00:22.392Z,27.6
2018-08-03T09:01:31.968Z,27.63
2018-08-03T09:02:41.274Z,27.6
2018-08-03T09:03:51.134Z,27.74
2018-08-03T09:05:01.252Z,27.46
2018-08-03T09:06:10.299Z,27.7
2018-08-03T09:07:20.435Z,27.67
2018-08-03T09:08:29.747Z,27.39
2018-08-03T09:09:39.323Z,27.44
2018-08-03T09:10:48.901Z,27.62
2018-08-03T09:11:58.489Z,27.65
2018-08-03T09:13:08.153Z,27.74
2018-08-03T09:14:18.184Z,27.82
2018-08-03T09:15:28.038Z,27.87
2018-08-03T09:16:37.888Z,27.87
2018-08-03T09:17:48.020Z,27.94
2018-08-03T09:18:57.347Z,27.94
2018-08-03T09:20:06.387Z,27.96
2018-08-03T09:21:15.696Z,27.96
2018-08-03T09:22:25.812Z,27.92
2018-08-03T09:23:35.663Z,27.94
2018-08-03T09:24:45.428Z,27.9
2018-08-03T09:25:55.619Z,27.97
2018-08-03T09:27:05.531Z,27.88
2018-08-03T09:28:15.397Z,27.82
2018-08-03T09:29:25.272Z,28.19
2018-08-03T09:30:35.176Z,28.21
2018-08-03T09:31:44.759Z,28.37
2018-08-03T09:32:54.071Z,28.39
2018-08-03T09:34:03.647Z,28.49
2018-08-03T09:35:12.951Z,28.54
2018-08-03T09:36:23.093Z,28.64
2018-08-03T09:37:33.019Z,28.24
2018-08-03T09:38:42.332Z,28.24
2018-08-03T09:39:51.647Z,28.37
2018-08-03T09:41:01.507Z,28.52
2018-08-03T09:42:11.088Z,28.74
2018-08-03T09:43:20.673Z,28.85
2018-08-03T09:44:30.263Z,28.89
2018-08-03T09:45:40.113Z,28.98
2018-08-03T09:46:49.955Z,29.12
2018-08-03T09:47:59.591Z,29.12
2018-08-03T09:49:09.537Z,29.14
2018-08-03T09:50:19.512Z,28.88
2018-08-03T09:51:28.555Z,29.02
2018-08-03T09:52:38.140Z,29.15
2018-08-03T09:53:48.263Z,29.33
2018-08-03T09:54:58.113Z,29.27
2018-08-03T09:56:07.693Z,29.3
2018-08-03T09:57:17.589Z,29.45
2018-08-03T09:58:27.173Z,29.6
2018-08-03T09:59:37.027Z,29.65
2018-08-03T10:00:47.153Z,29.85
2018-08-03T10:01:56.850Z,29.68
2018-08-03T10:03:06.435Z,29.64
2018-08-03T10:04:16.015Z,29.67
2018-08-03T10:05:25.870Z,29.67
2018-08-03T10:06:35.452Z,29.65
2018-08-03T10:07:44.771Z,29.8
2018-08-03T10:08:54.083Z,29.87
2018-08-03T10:10:04.204Z,29.78
2018-08-03T10:11:14.055Z,29.61
2018-08-03T10:12:23.957Z,29.83
2018-08-03T10:13:33.546Z,29.95
2018-08-03T10:14:43.398Z,29.86
2018-08-03T10:15:53.518Z,29.8
2018-08-03T10:17:03.429Z,29.76
2018-08-03T10:18:12.739Z,29.83
2018-08-03T10:19:22.589Z,29.9
2018-08-03T10:20:31.898Z,29.9
2018-08-03T10:21:41.759Z,29.92
2018-08-03T10:22:51.606Z,30.07
2018-08-03T10:24:01.734Z,30.16
2018-08-03T10:25:11.316Z,30.26
2018-08-03T10:26:20.624Z,30.38
2018-08-03T10:27:30.203Z,30.46
2018-08-03T10:28:39.787Z,30.55
2018-08-03T10:29:49.895Z,30.75
2018-08-03T10:30:59.746Z,30.67
2018-08-03T10:32:09.064Z,30.72
2018-08-03T10:33:18.643Z,30.73
2018-08-03T10:34:28.493Z,30.73
2018-08-03T10:35:38.349Z,30.39
2018-08-03T10:36:48.467Z,30.55
2018-08-03T10:37:58.316Z,30.54
2018-08-03T10:39:07.632Z,30.58
2018-08-03T10:40:16.942Z,30.6
2018-08-03T10:41:27.072Z,30.69
2018-08-03T10:42:36.654Z,30.46
2018-08-03T10:43:46.590Z,30.37
2018-08-03T10:44:55.902Z,30.49
2018-08-03T10:46:05.487Z,30.47
2018-08-03T10:47:15.256Z,30.55
2018-08-03T10:48:24.854Z,30.54
2018-08-03T10:49:34.169Z,30.2
2018-08-03T10:50:44.289Z,30.38
2018-08-03T10:51:54.141Z,30.53
2018-08-03T10:53:04.007Z,30.38
2018-08-03T10:54:13.585Z,30.51
2018-08-03T10:55:23.437Z,30.57
2018-08-03T10:56:33.017Z,30.46
2018-08-03T10:57:42.865Z,30.57
2018-08-03T10:58:52.185Z,30.76
2018-08-03T11:00:01.771Z,30.67
2018-08-03T11:01:11.654Z,30.86
2018-08-03T11:02:21.610Z,30.92
2018-08-03T11:03:31.467Z,31.01
2018-08-03T11:04:41.051Z,30.97
2018-08-03T11:05:50.630Z,31.16
2018-08-03T11:07:00.758Z,31.31
2018-08-03T11:08:10.071Z,31.25
2018-08-03T11:09:19.381Z,31.39
2018-08-03T11:10:28.688Z,31.51
2018-08-03T11:11:38.804Z,31.51
2018-08-03T11:12:48.650Z,31.63
2018-08-03T11:13:58.696Z,31.65
2018-08-03T11:15:09.107Z,31.68
2018-08-03T11:16:19.224Z,31.76
2018-08-03T11:17:29.096Z,31.72
2018-08-03T11:18:38.950Z,31.69
2018-08-03T11:19:48.796Z,31.81
2018-08-03T11:20:58.653Z,31.89
2018-08-03T11:22:07.963Z,31.86
2018-08-03T11:23:17.272Z,32.01
2018-08-03T11:24:27.237Z,32.04
2018-08-03T11:25:37.101Z,32.22
2018-08-03T11:26:46.465Z,32.21
2018-08-03T11:27:56.314Z,32.13
2018-08-03T11:29:05.900Z,32.37
2018-08-03T11:30:15.482Z,32.55
2018-08-03T11:31:25.337Z,32.52
2018-08-03T11:32:35.466Z,32.56
2018-08-03T11:33:45.317Z,32.45
2018-08-03T11:34:55.438Z,32.51
2018-08-03T11:36:05.285Z,32.65
2018-08-03T11:37:14.863Z,32.79
2018-08-03T11:38:24.447Z,32.79
2018-08-03T11:39:34.031Z,32.81
2018-08-03T11:40:43.711Z,32.85
2018-08-03T11:41:54.024Z,32.72
2018-08-03T11:43:03.614Z,32.85
2018-08-03T11:44:13.743Z,32.69
2018-08-03T11:45:23.597Z,32.72
2018-08-03T11:46:33.451Z,32.79
2018-08-03T11:47:43.029Z,32.75
2018-08-03T11:48:53.165Z,32.69
2018-08-03T11:50:02.208Z,32.25
2018-08-03T11:51:12.059Z,32.3
2018-08-03T11:52:21.913Z,32.28
2018-08-03T11:53:31.228Z,32.18
2018-08-03T11:54:41.359Z,32.04
2018-08-03T11:55:51.254Z,32
2018-08-03T11:57:00.837Z,32.11
2018-08-03T11:58:10.962Z,32.23
2018-08-03T11:59:20.822Z,32.38
2018-08-03T12:00:30.406Z,32.38
2018-08-03T12:01:39.717Z,32.43
2018-08-03T12:02:49.872Z,32.66
2018-08-03T12:03:59.721Z,32.74
2018-08-03T12:05:09.306Z,33.03
2018-08-03T12:06:19.157Z,33.07
2018-08-03T12:07:28.812Z,32.79
2018-08-03T12:08:38.125Z,32.81
2018-08-03T12:09:47.996Z,32.93
2018-08-03T12:10:57.858Z,33.28
2018-08-03T12:12:07.463Z,33.49
2018-08-03T12:13:17.047Z,33.23
2018-08-03T12:14:26.627Z,33.23
2018-08-03T12:15:36.479Z,33.45
2018-08-03T12:16:46.063Z,33.39
2018-08-03T12:17:56.422Z,33.56
2018-08-03T12:19:06.513Z,33.56
2018-08-03T12:20:16.381Z,33.34
2018-08-03T12:21:25.977Z,33.57
2018-08-03T12:22:36.099Z,33.82
2018-08-03T12:23:46.187Z,33.84
2018-08-03T12:24:55.901Z,33.71
2018-08-03T12:26:05.492Z,34
2018-08-03T12:27:15.393Z,33.93
2018-08-03T12:28:25.255Z,33.97
2018-08-03T12:29:34.843Z,34.19
2018-08-03T12:30:44.164Z,34.31
2018-08-03T12:31:54.025Z,34.28
2018-08-03T12:33:03.611Z,34.27
2018-08-03T12:34:12.929Z,34.39
2018-08-03T12:35:22.533Z,34.46
2018-08-03T12:36:32.124Z,34.32
2018-08-03T12:37:41.727Z,34.42
2018-08-03T12:38:51.047Z,34.35
2018-08-03T12:40:00.097Z,34
2018-08-03T12:41:09.690Z,33.95
2018-08-03T12:42:19.274Z,33.88
2018-08-03T12:43:29.284Z,34.05
2018-08-03T12:44:39.154Z,34.12
2018-08-03T12:45:48.739Z,34.43
2018-08-03T12:46:58.732Z,34.65
2018-08-03T12:48:08.956Z,34.8
2018-08-03T12:49:18.549Z,34.65
2018-08-03T12:50:28.469Z,34.7
2018-08-03T12:51:38.900Z,34.53
2018-08-03T12:52:49.012Z,34.66
2018-08-03T12:53:58.964Z,34.42
2018-08-03T12:55:08.553Z,34.75
2018-08-03T12:56:18.137Z,34.7
2018-08-03T12:57:27.995Z,34.62
2018-08-03T12:58:37.587Z,34.65
2018-08-03T12:59:47.259Z,34.65
2018-08-03T13:00:57.279Z,34.69
2018-08-03T13:02:06.870Z,34.87
2018-08-03T13:03:16.187Z,34.72
2018-08-03T13:04:26.209Z,34.7
2018-08-03T13:05:35.809Z,34.84
2018-08-03T13:06:45.997Z,34.88
2018-08-03T13:07:56.699Z,34.88
2018-08-03T13:09:07.729Z,34.66
2018-08-03T13:10:17.869Z,34.81
2018-08-03T13:11:27.995Z,34.78
2018-08-03T13:12:37.848Z,34.91
2018-08-03T13:13:47.711Z,34.75
2018-08-03T13:14:57.835Z,35.09
2018-08-03T13:16:07.301Z,35.25
2018-08-03T13:17:16.624Z,35.34
2018-08-03T13:18:26.214Z,35.23
2018-08-03T13:19:36.342Z,35.43
2018-08-03T13:20:45.934Z,35.28
2018-08-03T13:21:55.531Z,35.28
2018-08-03T13:23:04.866Z,35.33
2018-08-03T13:24:14.189Z,35.31
2018-08-03T13:25:24.318Z,35.23
2018-08-03T13:26:33.645Z,35.41
2018-08-03T13:27:43.784Z,35.21
2018-08-03T13:28:53.370Z,35.6
2018-08-03T13:30:02.964Z,35.5
2018-08-03T13:31:12.556Z,35.5
2018-08-03T13:32:22.473Z,35.43
2018-08-03T13:33:32.066Z,35.45
2018-08-03T13:34:41.385Z,35.58
2018-08-03T13:35:50.980Z,35.71
2018-08-03T13:37:00.576Z,35.58
2018-08-03T13:38:10.440Z,35.48
2018-08-03T13:39:20.036Z,35.66
2018-08-03T13:40:29.622Z,35.65
2018-08-03T13:41:39.483Z,35.7
2018-08-03T13:42:49.621Z,35.72
2018-08-03T13:43:59.494Z,35.77
2018-08-03T13:45:09.626Z,35.65
2018-08-03T13:46:19.811Z,35.68
2018-08-03T13:47:29.129Z,35.47
2018-08-03T13:48:39.260Z,35.66
2018-08-03T13:49:48.846Z,35.65
2018-08-03T13:50:58.170Z,35.93
2018-08-03T13:52:08.042Z,35.99
2018-08-03T13:53:17.361Z,36.29
2018-08-03T13:54:26.721Z,36.25
2018-08-03T13:55:36.580Z,36.05
2018-08-03T13:56:45.897Z,36.19
2018-08-03T13:57:55.686Z,36.23
2018-08-03T13:59:05.413Z,36.08
2018-08-03T14:00:15.280Z,36.23
2018-08-03T14:01:25.139Z,36.15
2018-08-03T14:02:35.003Z,36.31
2018-08-03T14:03:45.164Z,35.93
2018-08-03T14:04:54.786Z,36.17
2018-08-03T14:06:04.381Z,36.23
2018-08-03T14:07:14.262Z,36.31
2018-08-03T14:08:24.123Z,36.49
2018-08-03T14:09:33.714Z,36.71
2018-08-03T14:10:43.579Z,36.51
2018-08-03T14:11:53.173Z,36.57
2018-08-03T14:13:02.494Z,36.66
2018-08-03T14:14:12.632Z,36.66
2018-08-03T14:15:22.218Z,36.72
2018-08-03T14:16:31.815Z,36.73
2018-08-03T14:17:41.968Z,36.87
2018-08-03T14:18:51.015Z,36.81
2018-08-03T14:20:01.153Z,37.02
2018-08-03T14:21:11.291Z,37.15
2018-08-03T14:22:21.307Z,37.2
2018-08-03T14:23:30.361Z,37.06
2018-08-03T14:24:40.496Z,37.05
2018-08-03T14:25:50.086Z,36.99
2018-08-03T14:26:59.674Z,37.21
2018-08-03T14:28:09.799Z,37.37
2018-08-03T14:29:19.390Z,37.37
2018-08-03T14:30:29.252Z,37.37
2018-08-03T14:31:39.338Z,37.62
2018-08-03T14:32:49.873Z,37.67
2018-08-03T14:33:59.745Z,37.62
2018-08-03T14:35:09.341Z,37.46
2018-08-03T14:36:18.941Z,37.34
2018-08-03T14:37:28.803Z,37.28
2018-08-03T14:38:38.668Z,37.39
2018-08-03T14:39:48.532Z,37.18
2018-08-03T14:40:57.856Z,37.47
2018-08-03T14:42:07.458Z,37.51
2018-08-03T14:43:16.779Z,37.46
2018-08-03T14:44:26.370Z,37.59
2018-08-03T14:45:36.515Z,37.66
2018-08-03T14:46:46.663Z,37.84
2018-08-03T14:47:56.523Z,37.96
2018-08-03T14:49:06.141Z,37.86
2018-08-03T14:50:16.103Z,37.66
2018-08-03T14:51:25.971Z,37.75
2018-08-03T14:52:35.294Z,37.75
2018-08-03T14:53:45.167Z,37.86
2018-08-03T14:54:54.216Z,37.97
2018-08-03T14:56:03.537Z,37.86
2018-08-03T14:57:13.131Z,38
2018-08-03T14:58:23.259Z,37.81
2018-08-03T14:59:32.846Z,38
2018-08-03T15:00:42.432Z,38.09